Time,TemperatureF,DewpointF,PressureIn,WindDirection,WindDirectionDegrees,WindSpeedMPH,WindSpeedGustMPH,Humidity,HourlyPrecipIn,Conditions,Clouds,dailyrainin,SoftwareType,DateUTC
2013-01-16 00:00:00,41.1,37.5,30.40,NW,315,1.0,4.0,87,0.00,,---,0.00,VWS V14.01,2013-01-16 08:00:00,
2013-01-16 00:30:00,40.7,37.4,30.40,NW,315,0.0,2.0,88,0.00,,---,0.00,VWS V14.01,2013-01-16 08:30:00,
2013-01-16 01:00:00,40.2,37.2,30.39,NW,315,1.0,3.0,89,0.00,,---,0.00,VWS V14.01,2013-01-16 09:00:00,
2013-01-16 01:30:00,39.4,36.2,30.39,NW,315,1.0,3.0,88,0.00,,---,0.00,VWS V14.01,2013-01-16 09:30:00,
2013-01-16 02:00:00,39.0,36.0,30.39,NW,315,2.0,4.0,89,0.00,,---,0.00,VWS V14.01,2013-01-16 10:00:00,
2013-01-16 02:30:00,38.4,35.5,30.39,NW,315,1.0,3.0,89,0.00,,---,0.00,VWS V14.01,2013-01-16 10:30:00,
2013-01-16 03:00:00,38.0,35.3,30.40,WSW,248,1.0,4.0,90,0.00,,---,0.00,VWS V14.01,2013-01-16 11:00:00,
2013-01-16 03:30:00,37.9,35.2,30.39,WSW,248,1.0,3.0,90,0.00,,---,0.00,VWS V14.01,2013-01-16 11:30:00,
2013-01-16 04:00:00,37.3,34.6,30.38,WSW,248,2.0,3.0,90,0.00,,---,0.00,VWS V14.01,2013-01-16 12:00:00,
2013-01-16 04:30:00,36.7,34.3,30.38,WSW,248,2.0,4.0,91,0.00,,---,0.00,VWS V14.01,2013-01-16 12:30:00,
2013-01-16 05:00:00,36.7,34.6,30.37,WSW,248,1.0,3.0,92,0.00,,---,0.00,VWS V14.01,2013-01-16 13:00:00,
2013-01-16 05:30:00,36.4,34.3,30.37,WSW,248,1.0,3.0,92,0.00,,---,0.00,VWS V14.01,2013-01-16 13:30:00,
2013-01-16 06:00:00,36.2,34.1,30.36,WSW,248,1.0,4.0,92,0.00,,---,0.00,VWS V14.01,2013-01-16 14:00:00,
2013-01-16 06:30:00,36.3,34.2,30.37,WSW,248,2.0,5.0,92,0.00,,---,0.00,VWS V14.01,2013-01-16 14:30:00,
2013-01-16 07:00:00,36.1,34.0,30.37,WSW,248,2.0,5.0,92,0.00,,---,0.00,VWS V14.01,2013-01-16 15:00:00,
2013-01-16 07:30:00,36.7,34.9,30.38,WSW,248,1.0,4.0,93,0.00,,---,0.00,VWS V14.01,2013-01-16 15:30:00,
2013-01-16 08:00:00,41.2,37.9,30.39,WSW,248,2.0,4.0,88,0.00,,---,0.00,VWS V14.01,2013-01-16 16:00:00,
2013-01-16 08:30:00,47.2,39.0,30.40,WSW,248,0.0,3.0,73,0.00,,---,0.00,VWS V14.01,2013-01-16 16:30:00,
2013-01-16 09:00:00,51.9,38.5,30.39,NNW,338,2.0,4.0,60,0.00,,---,0.00,VWS V14.01,2013-01-16 17:00:00,
2013-01-16 09:30:00,57.1,38.1,30.39,NNW,338,1.0,4.0,49,0.00,,---,0.00,VWS V14.01,2013-01-16 17:30:00,
2013-01-16 10:00:00,57.8,37.7,30.38,NE,45,1.0,3.0,47,0.00,,---,0.00,VWS V14.01,2013-01-16 18:00:00,
2013-01-16 10:30:00,61.4,38.1,30.37,NE,45,1.0,2.0,42,0.00,,---,0.00,VWS V14.01,2013-01-16 18:30:00,
2013-01-16 11:00:00,62.9,38.2,30.34,West,270,1.0,5.0,40,0.00,,---,0.00,VWS V14.01,2013-01-16 19:00:00,
2013-01-16 11:30:00,66.3,37.1,30.32,West,270,1.0,5.0,34,0.00,,---,0.00,VWS V14.01,2013-01-16 19:30:00,
2013-01-16 12:00:00,68.0,36.3,30.30,SW,225,1.0,4.0,31,0.00,,---,0.00,VWS V14.01,2013-01-16 20:00:00,
2013-01-16 12:30:00,67.1,40.7,30.27,South,180,4.0,11.0,38,0.00,,---,0.00,VWS V14.01,2013-01-16 20:30:00,
2013-01-16 13:00:00,67.7,40.5,30.25,South,180,4.0,9.0,37,0.00,,---,0.00,VWS V14.01,2013-01-16 21:00:00,
2013-01-16 13:30:00,67.5,40.3,30.24,SSW,202,3.0,9.0,37,0.00,,---,0.00,VWS V14.01,2013-01-16 21:30:00,
2013-01-16 14:00:00,67.9,44.0,30.22,SW,225,4.0,11.0,42,0.00,,---,0.00,VWS V14.01,2013-01-16 22:00:00,
2013-01-16 14:30:00,68.9,41.6,30.21,SSW,202,4.0,12.0,37,0.00,,---,0.00,VWS V14.01,2013-01-16 22:30:00,
2013-01-16 15:00:00,69.5,35.9,30.21,WSW,248,5.0,10.0,29,0.00,,---,0.00,VWS V14.01,2013-01-16 23:00:00,
2013-01-16 15:30:00,69.0,34.6,30.21,West,270,6.0,12.0,28,0.00,,---,0.00,VWS V14.01,2013-01-16 23:30:00,
2013-01-16 16:00:00,67.1,33.8,30.21,WNW,292,6.0,11.0,29,0.00,,---,0.00,VWS V14.01,2013-01-17 00:00:00,
2013-01-16 16:30:00,65.2,39.0,30.21,WNW,292,6.0,10.0,38,0.00,,---,0.00,VWS V14.01,2013-01-17 00:30:00,
2013-01-16 17:00:00,62.8,40.6,30.21,WNW,292,5.0,9.0,44,0.00,,---,0.00,VWS V14.01,2013-01-17 01:00:00,
2013-01-16 17:30:00,57.0,43.3,30.21,WNW,289,4.0,8.0,60,0.00,,---,0.00,VWS V14.01,2013-01-17 01:30:00,
2013-01-16 17:59:00,58.2,41.7,30.21,WNW,301,3.0,7.0,54,0.00,,---,0.00,VWS V14.01,2013-01-17 01:59:00,
2013-01-16 18:00:00,58.2,41.7,30.21,WNW,301,3.0,7.0,54,0.00,,---,0.00,VWS V14.01,2013-01-17 02:00:00,
2013-01-16 18:29:00,57.0,43.3,30.21,WNW,289,4.0,8.0,60,0.00,,---,0.00,VWS V14.01,2013-01-17 02:29:00,
2013-01-16 18:30:00,57.0,43.3,30.21,WNW,289,4.0,8.0,60,0.00,,---,0.00,VWS V14.01,2013-01-17 02:30:00,
2013-01-16 18:59:00,55.4,43.0,30.21,NW,311,2.0,6.0,63,0.00,,---,0.00,VWS V14.01,2013-01-17 02:59:00,
2013-01-16 19:00:00,55.4,43.0,30.21,NW,311,2.0,6.0,63,0.00,,---,0.00,VWS V14.01,2013-01-17 03:00:00,
2013-01-16 19:29:00,53.2,42.5,30.20,NW,310,0.0,4.0,67,0.00,,---,0.00,VWS V14.01,2013-01-17 03:29:00,
2013-01-16 19:30:00,53.2,42.5,30.20,NW,310,0.0,4.0,67,0.00,,---,0.00,VWS V14.01,2013-01-17 03:30:00,
2013-01-16 19:59:00,51.0,42.7,30.20,NW,310,3.0,4.0,73,0.00,,---,0.00,VWS V14.01,2013-01-17 03:59:00,
2013-01-16 20:00:00,51.0,42.7,30.20,NW,310,3.0,4.0,73,0.00,,---,0.00,VWS V14.01,2013-01-17 04:00:00,
2013-01-16 20:29:00,50.3,42.7,30.19,WNW,302,2.0,5.0,75,0.00,,---,0.00,VWS V14.01,2013-01-17 04:29:00,
2013-01-16 20:30:00,50.3,42.7,30.19,WNW,302,2.0,5.0,75,0.00,,---,0.00,VWS V14.01,2013-01-17 04:30:00,
2013-01-16 20:59:00,50.3,42.7,30.18,North,10,3.0,7.0,75,0.00,,---,0.00,VWS V14.01,2013-01-17 04:59:00,
2013-01-16 21:00:00,50.3,42.7,30.18,North,10,3.0,7.0,75,0.00,,---,0.00,VWS V14.01,2013-01-17 05:00:00,
2013-01-16 21:30:00,48.8,42.3,30.17,WNW,292,2.0,5.0,78,0.00,,---,0.00,VWS V14.01,2013-01-17 05:30:00,
2013-01-16 22:00:00,48.0,42.1,30.17,WNW,292,3.0,7.0,80,0.00,,---,0.00,VWS V14.01,2013-01-17 06:00:00,
2013-01-16 22:30:00,48.1,42.2,30.17,WNW,292,3.0,6.0,80,0.00,,---,0.00,VWS V14.01,2013-01-17 06:30:00,
2013-01-16 23:00:00,48.1,42.9,30.16,NW,315,4.0,7.0,82,0.00,,---,0.00,VWS V14.01,2013-01-17 07:00:00,
2013-01-16 23:30:00,47.3,42.1,30.16,NW,315,4.0,6.0,82,0.00,,---,0.00,VWS V14.01,2013-01-17 07:30:00,